Time;durP1;ratioP1;P1;durP2;ratioP2;P2;SDS_P1;SDS_P2;PMS_P1;PMS_P2;Temp;Humidity;BMP_temperature;BMP_pressure;BME280_temperature;BME280_humidity;BME280_pressure;Samples;Min_cycle;Max_cycle;Signal;HPM_P1;HPM_P2
2022/07/04 00:01:06;;;;;;;3.88;2.20;;;14.30;99.90;;;;;;5041141;28;20112;-78
2022/07/04 00:03:31;;;;;;;5.30;2.60;;;14.30;99.90;;;;;;5044563;28;20033;-78
2022/07/04 00:05:57;;;;;;;4.38;2.40;;;14.30;99.90;;;;;;5046539;28;20542;-78
2022/07/04 00:08:23;;;;;;;4.35;2.63;;;14.20;99.90;;;;;;5044045;28;20070;-78
2022/07/04 00:10:48;;;;;;;3.70;2.40;;;14.20;99.90;;;;;;5043044;28;20034;-78
2022/07/04 00:13:14;;;;;;;4.85;2.58;;;14.20;99.90;;;;;;5041320;28;20036;-78
2022/07/04 00:15:40;;;;;;;4.07;2.50;;;14.20;99.90;;;;;;5042971;28;20491;-79
2022/07/04 00:18:06;;;;;;;4.82;2.80;;;14.20;99.90;;;;;;5044014;28;20411;-78
2022/07/04 00:20:31;;;;;;;6.07;2.30;;;14.20;99.90;;;;;;5044885;28;20132;-78
2022/07/04 00:22:57;;;;;;;4.75;2.50;;;14.20;99.90;;;;;;5038250;28;20037;-77
2022/07/04 00:25:22;;;;;;;3.95;2.90;;;14.10;99.90;;;;;;5042718;28;20487;-78
2022/07/04 00:27:48;;;;;;;3.80;2.63;;;14.10;99.90;;;;;;5042629;28;20073;-78
2022/07/04 00:30:14;;;;;;;3.90;2.70;;;14.00;99.90;;;;;;5042360;28;20119;-78
2022/07/04 00:32:39;;;;;;;4.55;2.80;;;14.10;99.90;;;;;;5027727;28;20048;-78
2022/07/04 00:35:06;;;;;;;4.13;2.75;;;14.10;99.90;;;;;;5043102;28;20513;-78
2022/07/04 00:37:31;;;;;;;5.03;2.60;;;14.10;99.90;;;;;;5043016;28;20499;-77
2022/07/04 00:39:57;;;;;;;5.32;2.92;;;14.10;99.90;;;;;;5026470;28;20071;-78
2022/07/04 00:42:22;;;;;;;5.15;2.58;;;14.10;99.90;;;;;;5044555;28;20390;-77
2022/07/04 00:44:48;;;;;;;5.97;3.00;;;14.10;99.90;;;;;;5041292;28;20139;-78
2022/07/04 00:47:13;;;;;;;4.55;2.72;;;14.10;99.90;;;;;;5043713;28;20037;-77
2022/07/04 00:49:40;;;;;;;5.55;2.70;;;14.10;99.90;;;;;;5025232;28;20094;-78
2022/07/04 00:52:06;;;;;;;5.63;2.83;;;14.00;99.90;;;;;;5040985;28;20041;-78
2022/07/04 00:54:32;;;;;;;4.25;3.17;;;13.90;99.90;;;;;;5042277;28;20033;-79
2022/07/04 00:56:59;;;;;;;5.63;2.70;;;13.90;99.90;;;;;;5043217;28;20097;-78
2022/07/04 00:59:25;;;;;;;6.15;3.00;;;13.90;99.90;;;;;;5044546;28;20053;-78
2022/07/04 01:01:50;;;;;;;4.38;2.92;;;13.90;99.90;;;;;;5026943;28;20036;-78
2022/07/04 01:04:16;;;;;;;6.30;2.80;;;13.90;99.90;;;;;;5038264;28;20414;-78
2022/07/04 01:06:43;;;;;;;4.32;3.10;;;13.90;99.90;;;;;;5043637;28;20124;-78
2022/07/04 01:09:08;;;;;;;6.07;2.88;;;13.80;99.90;;;;;;5043701;28;20044;-78
2022/07/04 01:11:34;;;;;;;6.03;3.40;;;13.80;99.90;;;;;;5043698;28;20465;-79
2022/07/04 01:14:01;;;;;;;4.32;3.03;;;13.90;99.90;;;;;;5042108;28;20391;-78
2022/07/04 01:16:26;;;;;;;5.22;3.40;;;13.80;99.90;;;;;;5042577;28;20487;-78
2022/07/04 01:18:53;;;;;;;3.60;3.08;;;13.80;99.90;;;;;;5041937;28;20048;-78
2022/07/04 01:21:19;;;;;;;4.63;3.15;;;13.80;99.90;;;;;;5041352;28;20073;-78
2022/07/04 01:23:45;;;;;;;5.90;3.30;;;13.80;99.90;;;;;;5044366;28;20044;-79
2022/07/04 01:26:11;;;;;;;3.47;2.92;;;13.80;99.90;;;;;;5048776;28;20033;-78
2022/07/04 01:28:38;;;;;;;5.05;3.13;;;13.70;99.90;;;;;;5046025;28;20069;-78
2022/07/04 01:31:04;;;;;;;5.65;3.38;;;13.90;99.90;;;;;;5047497;28;21685;-78
2022/07/04 01:33:30;;;;;;;4.88;3.30;;;13.70;99.90;;;;;;5058105;28;20111;-78
2022/07/04 01:35:56;;;;;;;5.32;3.67;;;13.70;99.90;;;;;;5045111;28;20037;-79
2022/07/04 01:38:21;;;;;;;7.35;3.60;;;13.60;99.90;;;;;;5046120;28;20049;-78
2022/07/04 01:40:47;;;;;;;6.05;3.40;;;13.60;99.90;;;;;;5043009;28;20029;-78
2022/07/04 01:43:12;;;;;;;4.30;3.53;;;13.60;99.90;;;;;;5046405;28;20106;-79
2022/07/04 01:45:38;;;;;;;5.13;3.50;;;13.60;99.90;;;;;;5045422;28;20033;-78
2022/07/04 01:48:08;;;;;;;5.57;3.65;;;13.70;99.90;;;;;;5045880;28;20029;-78
2022/07/04 01:50:34;;;;;;;5.20;3.78;;;13.60;99.90;;;;;;5045499;28;20045;-78
2022/07/04 01:53:00;;;;;;;5.43;3.88;;;13.60;99.90;;;;;;5045076;28;20194;-78
2022/07/04 01:55:27;;;;;;;5.43;3.65;;;13.60;99.90;;;;;;5044578;28;20052;-78
2022/07/04 01:57:52;;;;;;;4.95;3.40;;;13.60;99.90;;;;;;5031061;28;20494;-78
2022/07/04 02:03:02;;;;;;;6.35;3.80;;;13.60;99.90;;;;;;5044597;28;20037;-78
2022/07/04 02:05:27;;;;;;;6.22;4.00;;;13.60;99.90;;;;;;5044449;28;20392;-78
2022/07/04 02:07:53;;;;;;;5.18;4.10;;;13.60;99.90;;;;;;5042210;28;20698;-78
2022/07/04 02:10:18;;;;;;;7.78;4.30;;;13.50;99.90;;;;;;5046886;28;20035;-78
2022/07/04 02:13:03;;;;;;;7.38;4.13;;;13.50;99.90;;;;;;5047233;28;20037;-78
2022/07/04 02:15:29;;;;;;;5.53;4.00;;;13.50;99.90;;;;;;5046075;28;20045;-78
2022/07/04 02:17:55;;;;;;;4.70;3.95;;;13.50;99.90;;;;;;5045065;28;20153;-78
2022/07/04 02:20:21;;;;;;;4.97;3.90;;;13.50;99.90;;;;;;5045973;28;20050;-78
2022/07/04 02:22:47;;;;;;;5.05;3.83;;;13.50;99.90;;;;;;5045673;28;20408;-78
2022/07/04 02:25:12;;;;;;;6.82;4.25;;;13.40;99.90;;;;;;5042165;28;20033;-78
2022/07/04 02:27:38;;;;;;;4.65;4.05;;;13.40;99.90;;;;;;5030238;28;20044;-78
2022/07/04 02:30:05;;;;;;;6.43;4.38;;;13.40;99.90;;;;;;5045184;28;20156;-78
2022/07/04 02:32:30;;;;;;;4.35;3.95;;;13.40;99.90;;;;;;5028304;28;20041;-77
2022/07/04 02:34:56;;;;;;;7.97;4.45;;;13.30;99.90;;;;;;5027905;28;20033;-78
2022/07/04 02:37:22;;;;;;;6.93;4.70;;;13.30;99.90;;;;;;5046275;28;20392;-78
2022/07/04 02:39:47;;;;;;;6.32;4.40;;;13.30;99.90;;;;;;5044701;28;20112;-77
2022/07/04 02:42:13;;;;;;;5.97;4.43;;;13.30;99.90;;;;;;5045562;28;20052;-77
2022/07/04 02:44:38;;;;;;;5.13;4.47;;;13.30;99.90;;;;;;5043028;28;20041;-77
2022/07/04 02:47:04;;;;;;;5.20;4.40;;;13.20;99.90;;;;;;5043312;28;20032;-78
2022/07/04 02:49:30;;;;;;;7.45;4.80;;;13.20;99.90;;;;;;5045180;28;20090;-78
2022/07/04 02:51:55;;;;;;;5.38;4.22;;;13.10;99.90;;;;;;5043960;28;20384;-78
2022/07/04 02:54:21;;;;;;;7.72;4.45;;;13.10;99.90;;;;;;5041310;28;20043;-78
2022/07/04 02:56:46;;;;;;;5.97;4.35;;;13.00;99.90;;;;;;5044175;28;20052;-78
2022/07/04 02:59:12;;;;;;;6.72;4.63;;;13.00;99.90;;;;;;5043602;28;20033;-78
2022/07/04 03:01:37;;;;;;;7.78;4.90;;;13.00;99.90;;;;;;5046148;28;20028;-78
2022/07/04 03:04:03;;;;;;;6.60;4.65;;;13.00;99.90;;;;;;5044006;28;20039;-78
2022/07/04 03:06:29;;;;;;;6.25;4.78;;;13.00;99.90;;;;;;5047721;28;20041;-78
2022/07/04 03:08:55;;;;;;;5.30;4.70;;;13.00;99.90;;;;;;5028707;28;20040;-78
2022/07/04 03:11:21;;;;;;;7.53;5.32;;;13.10;99.90;;;;;;5043662;28;20029;-77
2022/07/04 03:13:46;;;;;;;5.70;4.82;;;13.00;99.90;;;;;;5045537;28;20041;-77
2022/07/04 03:16:12;;;;;;;8.25;5.70;;;13.00;99.90;;;;;;5043302;28;20065;-78
2022/07/04 03:18:38;;;;;;;8.68;5.40;;;13.00;99.90;;;;;;5042276;28;20037;-77
2022/07/04 03:21:06;;;;;;;5.93;4.90;;;13.10;99.90;;;;;;5042555;28;20142;-78
2022/07/04 03:23:33;;;;;;;8.38;5.20;;;13.00;99.90;;;;;;5044165;28;20418;-77
2022/07/04 03:25:59;;;;;;;5.97;5.07;;;13.10;99.90;;;;;;5042990;28;20747;-77
2022/07/04 03:28:25;;;;;;;7.07;5.35;;;13.10;99.90;;;;;;5045310;28;20056;-77
2022/07/04 03:30:50;;;;;;;8.88;5.43;;;13.00;99.90;;;;;;5043054;28;20040;-78
2022/07/04 03:33:16;;;;;;;8.05;5.43;;;13.00;99.90;;;;;;5045352;28;20098;-78
2022/07/04 03:35:42;;;;;;;8.50;5.97;;;13.10;99.90;;;;;;5046983;28;20033;-78
2022/07/04 03:38:07;;;;;;;6.35;5.10;;;13.00;99.90;;;;;;5045915;28;20433;-78
2022/07/04 03:40:35;;;;;;;7.32;5.63;;;13.10;99.90;;;;;;5045669;28;20041;-77
2022/07/04 03:43:01;;;;;;;7.53;5.03;;;13.10;99.90;;;;;;5044692;28;20041;-77
2022/07/04 03:45:27;;;;;;;8.82;4.97;;;13.00;99.90;;;;;;5039407;28;20095;-78
2022/07/04 03:47:53;;;;;;;7.63;5.28;;;13.10;99.90;;;;;;5043842;28;20033;-77
2022/07/04 03:50:18;;;;;;;9.18;5.47;;;13.10;99.90;;;;;;5040402;28;20043;-77
2022/07/04 03:52:44;;;;;;;7.93;5.47;;;13.10;99.90;;;;;;5028006;28;20056;-78
2022/07/04 03:55:09;;;;;;;9.52;5.93;;;13.10;99.90;;;;;;5041217;28;20048;-77
2022/07/04 03:57:35;;;;;;;8.70;5.60;;;13.10;99.90;;;;;;5045821;28;20037;-77
2022/07/04 04:00:03;;;;;;;8.80;5.28;;;13.10;99.90;;;;;;5041188;28;20063;-77
2022/07/04 04:02:28;;;;;;;7.53;5.47;;;13.10;99.90;;;;;;5042838;28;21710;-77
2022/07/04 04:07:38;;;;;;;;;;;13.20;99.90;;;;;;5044003;28;20049;-77
2022/07/04 04:10:04;;;;;;;8.02;5.50;;;13.20;99.90;;;;;;5043233;28;19916;-77
2022/07/04 04:12:30;;;;;;;6.85;5.78;;;13.20;99.90;;;;;;5043751;28;20076;-77
2022/07/04 04:14:55;;;;;;;6.75;5.45;;;13.20;99.90;;;;;;5026223;28;20037;-76
2022/07/04 04:17:21;;;;;;;7.95;5.93;;;13.20;99.90;;;;;;5042639;28;20139;-77
2022/07/04 04:19:46;;;;;;;8.63;5.80;;;13.20;99.90;;;;;;5042366;28;20060;-77
2022/07/04 04:22:12;;;;;;;6.45;5.68;;;13.20;99.90;;;;;;5045049;28;20032;-77
2022/07/04 04:24:37;;;;;;;7.93;5.63;;;13.30;99.90;;;;;;5042722;28;20037;-77
2022/07/04 04:27:03;;;;;;;8.40;5.72;;;13.30;99.90;;;;;;5043347;28;20328;-77
2022/07/04 04:29:29;;;;;;;6.82;5.47;;;13.30;99.90;;;;;;5040798;28;20132;-77
2022/07/04 04:31:54;;;;;;;6.35;5.45;;;13.30;99.90;;;;;;5042369;28;20041;-77
2022/07/04 04:34:20;;;;;;;6.93;5.43;;;13.40;99.90;;;;;;5038789;28;20036;-77
2022/07/04 04:36:45;;;;;;;6.85;5.18;;;13.40;99.90;;;;;;5044446;28;20029;-77
2022/07/04 04:39:11;;;;;;;8.60;5.43;;;13.50;99.90;;;;;;5046106;28;20049;-78
2022/07/04 04:41:36;;;;;;;6.68;5.50;;;13.60;99.90;;;;;;5043197;28;20079;-77
2022/07/04 04:44:02;;;;;;;7.30;5.22;;;13.60;99.90;;;;;;5039241;28;20040;-77
2022/07/04 04:46:28;;;;;;;8.82;5.45;;;13.70;99.90;;;;;;5044045;28;20033;-77
2022/07/04 04:48:54;;;;;;;7.50;5.30;;;13.70;99.90;;;;;;5043069;28;20124;-77
2022/07/04 04:51:19;;;;;;;6.32;5.38;;;13.80;99.90;;;;;;5044308;28;20048;-77
2022/07/04 04:53:45;;;;;;;6.63;5.53;;;13.90;99.90;;;;;;5040507;28;20045;-76
2022/07/04 04:56:10;;;;;;;6.75;5.13;;;13.90;99.90;;;;;;5043848;28;20041;-77
2022/07/04 04:58:36;;;;;;;10.40;5.63;;;14.00;99.90;;;;;;5040953;28;20094;-76
2022/07/04 05:01:02;;;;;;;6.88;5.28;;;14.10;99.90;;;;;;5040164;28;20114;-76
2022/07/04 05:03:28;;;;;;;8.07;5.30;;;14.10;99.90;;;;;;5042728;28;20045;-76
2022/07/04 05:05:54;;;;;;;8.70;5.97;;;14.10;99.90;;;;;;5041650;28;20114;-76
2022/07/04 05:08:20;;;;;;;6.53;5.82;;;14.10;99.90;;;;;;5043793;28;20037;-76
2022/07/04 05:10:45;;;;;;;11.18;5.90;;;14.20;99.90;;;;;;5044641;28;20047;-76
2022/07/04 05:13:11;;;;;;;7.53;5.78;;;14.30;99.90;;;;;;5041940;28;20119;-76
2022/07/04 05:15:37;;;;;;;7.75;5.65;;;14.40;99.90;;;;;;5041496;28;20049;-77
2022/07/04 05:18:02;;;;;;;7.15;5.63;;;14.50;99.90;;;;;;5041667;28;20554;-76
2022/07/04 05:20:28;;;;;;;10.68;5.80;;;14.50;99.90;;;;;;5043580;28;20055;-77
2022/07/04 05:22:53;;;;;;;7.97;5.82;;;14.70;99.90;;;;;;5043397;28;20029;-77
2022/07/04 05:25:19;;;;;;;9.73;6.47;;;14.80;99.90;;;;;;5040977;28;20415;-77
2022/07/04 05:27:44;;;;;;;6.65;5.90;;;14.90;99.90;;;;;;5057475;28;20036;-77
2022/07/04 05:30:10;;;;;;;12.32;6.18;;;15.00;99.90;;;;;;5042092;28;20166;-76
2022/07/04 05:32:39;;;;;;;6.70;5.60;;;15.20;99.90;;;;;;5042243;28;20041;-77
2022/07/04 05:35:06;;;;;;;10.52;5.78;;;15.20;99.90;;;;;;5041859;28;20041;-77
2022/07/04 05:37:31;;;;;;;8.07;5.65;;;15.30;99.90;;;;;;5041722;28;20414;-77
2022/07/04 05:39:57;;;;;;;9.27;5.85;;;15.30;99.90;;;;;;5041143;28;20037;-77
2022/07/04 05:42:23;;;;;;;9.40;5.85;;;15.40;99.90;;;;;;5042399;28;20041;-77
2022/07/04 05:44:48;;;;;;;9.98;6.00;;;15.50;99.90;;;;;;5041444;28;20581;-77
2022/07/04 05:47:14;;;;;;;9.20;5.82;;;15.60;99.90;;;;;;5039980;28;20064;-77
2022/07/04 05:49:40;;;;;;;8.30;5.55;;;15.70;99.90;;;;;;5042096;28;20041;-77
2022/07/04 05:52:05;;;;;;;8.45;5.35;;;15.90;99.90;;;;;;5039868;28;20084;-77
2022/07/04 05:54:31;;;;;;;9.50;5.43;;;16.00;99.90;;;;;;5040928;28;20056;-77
2022/07/04 05:56:57;;;;;;;10.38;5.45;;;16.10;99.90;;;;;;5039561;28;20587;-77
2022/07/04 05:59:22;;;;;;;7.28;4.45;;;16.20;99.90;;;;;;5040756;28;20052;-77
2022/07/04 06:01:48;;;;;;;9.50;5.00;;;16.40;99.90;;;;;;5041187;28;20119;-77
2022/07/04 06:04:13;;;;;;;10.85;4.65;;;16.60;99.90;;;;;;5038133;28;20372;-77
2022/07/04 06:06:39;;;;;;;6.43;4.25;;;16.70;99.90;;;;;;5045197;28;20041;-77
2022/07/04 06:09:05;;;;;;;8.63;4.53;;;16.80;99.90;;;;;;5043527;28;20037;-77
2022/07/04 06:11:30;;;;;;;9.20;4.05;;;16.90;99.90;;;;;;5029803;28;20040;-77
2022/07/04 06:13:56;;;;;;;6.82;4.03;;;17.00;99.90;;;;;;5046739;28;20100;-77
2022/07/04 06:16:21;;;;;;;7.78;4.65;;;17.10;99.90;;;;;;5044094;28;20047;-77
2022/07/04 06:18:47;;;;;;;8.43;4.38;;;17.20;99.90;;;;;;5046097;28;20087;-77
2022/07/04 06:21:13;;;;;;;10.00;4.55;;;17.30;99.90;;;;;;5044373;28;20064;-77
2022/07/04 06:23:38;;;;;;;9.00;4.00;;;17.40;99.90;;;;;;5042994;28;20033;-77
2022/07/04 06:26:04;;;;;;;6.93;4.10;;;17.50;99.90;;;;;;5043760;28;20499;-78
2022/07/04 06:28:30;;;;;;;5.65;3.78;;;17.60;99.90;;;;;;5045004;28;20371;-77
2022/07/04 06:30:56;;;;;;;9.55;4.00;;;17.70;99.90;;;;;;5047115;28;20076;-77
2022/07/04 06:33:22;;;;;;;9.05;3.95;;;17.80;99.90;;;;;;5046472;28;20072;-76
2022/07/04 06:35:56;;;;;;;5.28;3.40;;;17.90;99.90;;;;;;5035478;28;20053;-78
2022/07/04 06:38:31;;;;;;;8.30;3.70;;;18.00;99.90;;;;;;5028043;28;20041;-78
2022/07/04 06:40:58;;;;;;;8.10;3.50;;;17.90;99.90;;;;;;5044898;28;20087;-78
2022/07/04 06:43:24;;;;;;;6.30;3.80;;;18.00;99.90;;;;;;5043374;28;20732;-77
2022/07/04 06:45:50;;;;;;;8.85;3.92;;;18.20;99.90;;;;;;5044515;28;20415;-77
2022/07/04 06:48:16;;;;;;;7.72;3.85;;;18.30;99.90;;;;;;5046010;28;20067;-77
2022/07/04 06:50:42;;;;;;;9.18;3.85;;;18.40;99.90;;;;;;5044523;28;20466;-77
2022/07/04 06:53:09;;;;;;;9.93;4.68;;;18.50;99.90;;;;;;5045636;28;20127;-77
2022/07/04 06:55:37;;;;;;;11.13;4.25;;;18.60;99.90;;;;;;5043958;28;20045;-77
2022/07/04 06:58:03;;;;;;;7.35;4.05;;;18.70;99.90;;;;;;5047318;28;20059;-78
2022/07/04 07:00:30;;;;;;;11.18;4.70;;;18.70;99.90;;;;;;5050272;28;20033;-78
2022/07/04 07:02:57;;;;;;;11.75;4.13;;;18.80;99.90;;;;;;5044172;28;20036;-78
2022/07/04 07:05:24;;;;;;;13.82;4.47;;;18.90;99.90;;;;;;5044693;28;20045;-77
2022/07/04 07:07:49;;;;;;;7.90;4.20;;;19.00;99.90;;;;;;5046944;28;20036;-78
2022/07/04 07:10:15;;;;;;;8.25;3.97;;;19.10;99.90;;;;;;5044836;28;20045;-78
2022/07/04 07:12:40;;;;;;;8.90;4.38;;;19.10;99.90;;;;;;5045510;28;20102;-78
2022/07/04 07:15:06;;;;;;;8.52;4.00;;;19.10;99.90;;;;;;5041076;28;20522;-78
2022/07/04 07:17:32;;;;;;;8.27;4.13;;;19.30;99.90;;;;;;5042744;28;20108;-78
2022/07/04 07:19:57;;;;;;;9.30;4.15;;;19.40;99.90;;;;;;5043697;28;20411;-78
2022/07/04 07:22:23;;;;;;;11.43;4.10;;;19.50;99.90;;;;;;5044779;28;20483;-78
2022/07/04 07:24:49;;;;;;;9.07;3.90;;;19.70;99.90;;;;;;5041106;28;20040;-78
2022/07/04 07:27:14;;;;;;;9.45;4.00;;;19.70;99.90;;;;;;5036177;28;20091;-78
2022/07/04 07:29:40;;;;;;;4.82;3.58;;;19.90;99.90;;;;;;5036352;28;20498;-81
2022/07/04 07:32:06;;;;;;;6.65;3.50;;;20.00;99.90;;;;;;5037938;28;20042;-78
2022/07/04 07:34:32;;;;;;;8.80;3.80;;;20.20;99.90;;;;;;5035795;28;20040;-78
2022/07/04 07:36:58;;;;;;;8.70;4.15;;;20.30;99.90;;;;;;5043608;28;20506;-79
2022/07/04 07:39:24;;;;;;;6.80;3.83;;;20.30;99.90;;;;;;5042945;28;20047;-78
2022/07/04 07:41:49;;;;;;;10.30;3.15;;;20.50;99.90;;;;;;5040489;28;20072;-78
2022/07/04 07:44:15;;;;;;;7.65;3.55;;;20.60;99.90;;;;;;5044032;28;20037;-79
2022/07/04 07:46:41;;;;;;;7.57;3.55;;;20.80;99.90;;;;;;5042015;28;20029;-79
2022/07/04 07:49:06;;;;;;;10.05;4.18;;;20.60;99.90;;;;;;5046947;28;20105;-79
2022/07/04 07:51:32;;;;;;;7.03;2.72;;;20.40;99.90;;;;;;5042880;28;20482;-79
2022/07/04 07:53:58;;;;;;;8.18;3.00;;;20.00;99.90;;;;;;5029983;28;20044;-79
2022/07/04 07:56:24;;;;;;;8.80;2.80;;;19.70;99.90;;;;;;5030598;28;20138;-79
2022/07/04 07:58:50;;;;;;;6.57;3.03;;;19.50;99.90;;;;;;5030904;28;20081;-79
2022/07/04 08:01:16;;;;;;;6.60;2.80;;;19.30;99.90;;;;;;5031139;28;20065;-79
2022/07/04 08:06:25;;;;;;;7.60;2.67;;;18.90;99.90;;;;;;5047275;28;20045;-78
2022/07/04 08:08:51;;;;;;;6.85;2.42;;;18.60;99.90;;;;;;5042804;28;20041;-79
2022/07/04 08:11:17;;;;;;;7.95;2.88;;;18.40;99.90;;;;;;5036545;28;20049;-79
2022/07/04 08:13:42;;;;;;;6.05;3.22;;;18.20;99.90;;;;;;5030471;28;20045;-78
2022/07/04 08:16:09;;;;;;;7.55;3.58;;;18.00;99.90;;;;;;5030281;28;20045;-79
2022/07/04 08:18:34;;;;;;;9.98;3.30;;;17.90;99.90;;;;;;5030627;28;20128;-79
2022/07/04 08:21:01;;;;;;;6.70;3.60;;;17.80;99.90;;;;;;5030655;28;20121;-78
2022/07/04 08:23:28;;;;;;;7.78;2.88;;;17.70;99.90;;;;;;5030495;28;20037;-79
2022/07/04 08:25:54;;;;;;;5.35;2.47;;;17.60;99.90;;;;;;5031380;28;20037;-78
2022/07/04 08:28:19;;;;;;;7.57;2.67;;;17.60;99.90;;;;;;5049330;28;20037;-79
2022/07/04 08:30:45;;;;;;;7.80;2.10;;;17.50;99.90;;;;;;5031353;28;20061;-79
2022/07/04 08:33:11;;;;;;;7.20;2.40;;;17.50;99.90;;;;;;5031173;28;20037;-78
2022/07/04 08:35:36;;;;;;;5.30;2.42;;;17.50;99.90;;;;;;5030170;28;20048;-78
2022/07/04 08:38:02;;;;;;;4.93;1.85;;;17.50;99.90;;;;;;5030232;28;20091;-79
2022/07/04 08:40:30;;;;;;;6.85;2.00;;;17.50;99.90;;;;;;5030464;28;20048;-79
2022/07/04 08:42:56;;;;;;;6.15;2.00;;;17.50;99.90;;;;;;5030784;28;20037;-79
2022/07/04 08:45:32;;;;;;;4.03;1.60;;;17.60;99.90;;;;;;5029977;28;20075;-79
2022/07/04 08:48:06;;;;;;;5.13;1.73;;;17.60;99.90;;;;;;5030317;28;20045;-79
2022/07/04 08:50:39;;;;;;;4.22;1.80;;;17.60;99.90;;;;;;5030302;28;20033;-79
2022/07/04 08:53:13;;;;;;;6.28;1.80;;;17.60;99.90;;;;;;5030699;28;20116;-80
2022/07/04 08:58:25;;;;;;;5.03;1.83;;;18.30;99.90;;;;;;5048123;28;20046;-80
2022/07/04 09:01:15;;;;;;;4.43;1.60;;;18.70;99.90;;;;;;5044842;28;20147;-80
2022/07/04 09:03:43;;;;;;;4.82;1.50;;;19.10;99.90;;;;;;5031138;28;20816;-79
2022/07/04 09:06:10;;;;;;;4.03;1.70;;;19.40;99.90;;;;;;5031929;28;20036;-79
2022/07/04 09:08:36;;;;;;;3.90;1.80;;;19.50;99.90;;;;;;5043491;28;20034;-80
2022/07/04 09:11:02;;;;;;;5.40;1.63;;;19.80;99.90;;;;;;5021778;28;20067;-79
2022/07/04 09:13:29;;;;;;;5.10;1.60;;;20.10;99.90;;;;;;5030106;28;20503;-80
2022/07/04 09:15:55;;;;;;;5.20;1.55;;;20.20;99.90;;;;;;5029007;28;20044;-80
2022/07/04 09:18:22;;;;;;;4.18;1.50;;;20.10;99.90;;;;;;5033320;28;20032;-80
2022/07/04 09:20:48;;;;;;;4.47;1.70;;;20.00;99.90;;;;;;5046216;28;20041;-79
2022/07/04 09:23:25;;;;;;;3.72;1.50;;;20.00;99.90;;;;;;5038882;28;20479;-80
2022/07/04 09:26:13;;;;;;;3.58;1.40;;;19.90;99.90;;;;;;5046682;28;20470;-79
2022/07/04 09:28:40;;;;;;;3.58;1.45;;;19.80;99.90;;;;;;5029581;28;20384;-78
2022/07/04 09:31:36;;;;;;;3.28;1.38;;;20.10;99.90;;;;;;5050753;28;20398;-80
2022/07/04 09:34:04;;;;;;;3.45;1.60;;;20.50;99.90;;;;;;5063980;28;20056;-79
2022/07/04 09:36:32;;;;;;;4.50;1.40;;;20.60;99.90;;;;;;5050547;28;20041;-79
2022/07/04 09:39:20;;;;;;;2.47;1.40;;;20.70;99.90;;;;;;5046292;28;20406;-79
2022/07/04 09:42:03;;;;;;;2.90;1.50;;;20.70;99.90;;;;;;5050474;28;20082;-79
2022/07/04 09:44:34;;;;;;;4.30;1.50;;;20.70;99.90;;;;;;5049740;28;20422;-79
2022/07/04 09:47:27;;;;;;;3.67;1.13;;;20.40;99.90;;;;;;5054377;28;20491;-79
2022/07/04 09:50:03;;;;;;;4.53;1.30;;;20.30;99.90;;;;;;5055083;28;20033;-80
2022/07/04 09:52:30;;;;;;;5.72;1.70;;;20.20;99.90;;;;;;5038676;28;20060;-80
2022/07/04 09:55:05;;;;;;;3.75;1.48;;;20.10;99.90;;;;;;5039116;28;20379;-80
2022/07/04 09:57:32;;;;;;;3.40;1.20;;;20.10;99.90;;;;;;5052658;28;20036;-79
2022/07/04 10:00:16;;;;;;;5.90;1.60;;;20.40;99.90;;;;;;5049571;28;20128;-79
2022/07/04 10:02:42;;;;;;;4.20;1.50;;;20.70;99.90;;;;;;5034782;28;20030;-79
2022/07/04 10:05:08;;;;;;;3.38;1.20;;;20.70;99.90;;;;;;5041211;28;20107;-79
2022/07/04 10:07:43;;;;;;;6.20;1.48;;;20.60;99.90;;;;;;5053187;28;20033;-79
2022/07/04 10:10:33;;;;;;;4.88;1.30;;;20.40;99.90;;;;;;5042746;28;20171;-80
2022/07/04 10:13:17;;;;;;;13.20;1.70;;;20.50;99.90;;;;;;5041947;28;20033;-81
2022/07/04 10:15:43;;;;;;;;;;;20.70;99.90;;;;;;5053056;28;20510;-80
2022/07/04 10:18:09;;;;;;;3.42;1.00;;;20.80;99.90;;;;;;5046032;28;19928;-79
2022/07/04 10:20:36;;;;;;;4.97;1.20;;;20.90;99.90;;;;;;5034338;28;20464;-80
2022/07/04 10:23:02;;;;;;;4.93;1.30;;;20.90;99.90;;;;;;5034084;28;20045;-80
2022/07/04 10:25:29;;;;;;;3.47;1.50;;;21.10;99.90;;;;;;5033441;28;20060;-78
2022/07/04 10:27:55;;;;;;;4.22;1.30;;;21.30;99.90;;;;;;5033704;28;20048;-80
2022/07/04 10:30:26;;;;;;;3.40;1.23;;;21.50;99.90;;;;;;5041861;28;20040;-78
2022/07/04 10:32:54;;;;;;;3.88;1.17;;;21.60;99.90;;;;;;5042667;28;20057;-80
2022/07/04 10:35:50;;;;;;;2.25;1.00;;;21.70;99.90;;;;;;5033541;28;20399;-80
2022/07/04 10:38:17;;;;;;;2.97;1.30;;;21.50;99.90;;;;;;5033860;28;20091;-81
2022/07/04 10:40:46;;;;;;;3.33;1.20;;;21.50;99.90;;;;;;5033525;28;20068;-80
2022/07/04 10:43:43;;;;;;;6.68;1.40;;;21.80;99.90;;;;;;5033687;28;20519;-80
2022/07/04 10:46:15;;;;;;;5.07;1.45;;;22.10;99.90;;;;;;5033270;28;20247;-80
2022/07/04 10:48:59;;;;;;;4.10;1.20;;;22.00;99.90;;;;;;5031567;28;20040;-80
2022/07/04 10:51:34;;;;;;;3.22;1.35;;;21.80;99.90;;;;;;5037221;28;20037;-79
2022/07/04 10:54:05;;;;;;;5.50;1.25;;;21.60;99.90;;;;;;5040647;28;20045;-79
2022/07/04 10:56:40;;;;;;;3.72;1.30;;;21.70;99.90;;;;;;5033854;28;20089;-81
2022/07/04 10:59:15;;;;;;;3.08;1.05;;;22.00;99.90;;;;;;5033663;28;20120;-80
2022/07/04 11:02:03;;;;;;;2.60;1.08;;;22.30;99.90;;;;;;5032699;28;20041;-82
2022/07/04 11:05:03;;;;;;;2.33;1.17;;;22.70;99.90;;;;;;5032113;28;20034;-81
2022/07/04 11:07:39;;;;;;;4.35;1.00;;;22.60;99.90;;;;;;5032724;28;20076;-81
2022/07/04 11:10:11;;;;;;;2.88;1.05;;;22.40;99.90;;;;;;5033036;28;20563;-81
2022/07/04 11:12:59;;;;;;;2.70;1.00;;;22.50;99.90;;;;;;5033164;28;20056;-80
2022/07/04 11:15:24;;;;;;;12.27;1.48;;;22.70;99.90;;;;;;5032542;28;20053;-80
2022/07/04 11:17:51;;;;;;;3.28;0.98;;;23.00;99.90;;;;;;5033616;28;20045;-80
2022/07/04 11:20:17;;;;;;;3.67;0.98;;;22.70;98.30;;;;;;5032556;28;20427;-81
2022/07/04 11:22:43;;;;;;;4.95;1.15;;;22.80;98.30;;;;;;5033788;28;20491;-80
2022/07/04 11:25:11;;;;;;;3.90;0.90;;;22.90;99.00;;;;;;5047776;28;20040;-81
2022/07/04 11:27:37;;;;;;;2.45;0.98;;;22.90;97.90;;;;;;5046848;28;20482;-80
2022/07/04 11:30:03;;;;;;;5.95;0.88;;;22.50;97.00;;;;;;5046557;28;20077;-81
2022/07/04 11:32:34;;;;;;;2.88;0.80;;;22.30;96.90;;;;;;5047051;28;20130;-81
2022/07/04 11:35:00;;;;;;;4.72;1.08;;;22.50;98.00;;;;;;5048650;28;20384;-80
2022/07/04 11:37:26;;;;;;;1.90;1.00;;;22.80;98.10;;;;;;5049312;28;20028;-80
2022/07/04 11:45:02;;;;;;;2.38;0.90;;;23.10;98.10;;;;;;5035973;28;20041;-81
2022/07/04 11:45:24;;;;;;;1.95;0.80;;;23.50;97.10;;;;;;5045471;28;20049;-80
2022/07/04 11:47:49;;;;;;;3.15;0.90;;;23.90;97.00;;;;;;5047939;28;20036;-81
2022/07/04 11:50:19;;;;;;;3.45;0.95;;;23.70;96.60;;;;;;5045226;28;20418;-80
2022/07/04 11:52:47;;;;;;;2.60;0.93;;;23.80;96.30;;;;;;5046850;28;20491;-79
2022/07/04 11:55:15;;;;;;;2.72;0.98;;;23.40;95.60;;;;;;5045333;28;20033;-80
2022/07/04 11:57:45;;;;;;;3.17;1.05;;;23.40;95.80;;;;;;5043154;28;20086;-81
2022/07/04 12:00:17;;;;;;;2.42;0.95;;;23.70;96.30;;;;;;5044838;28;21741;-79
2022/07/04 12:02:45;;;;;;;2.33;0.80;;;23.70;95.70;;;;;;5041965;28;20115;-81
2022/07/04 12:05:12;;;;;;;1.65;0.90;;;23.90;96.00;;;;;;5042280;28;20094;-80
2022/07/04 12:07:39;;;;;;;2.65;0.90;;;23.90;96.10;;;;;;5026961;28;20064;-79
2022/07/04 12:10:11;;;;;;;2.53;0.90;;;23.50;95.10;;;;;;5048422;28;20083;-80
2022/07/04 12:12:59;;;;;;;2.70;0.85;;;22.90;94.90;;;;;;5034171;28;20080;-79
2022/07/04 12:15:35;;;;;;;6.30;1.38;;;22.60;94.90;;;;;;5031475;28;20047;-80
2022/07/04 12:18:01;;;;;;;2.42;1.00;;;22.90;95.60;;;;;;5046144;28;20547;-79
2022/07/04 12:20:27;;;;;;;6.32;1.00;;;23.30;95.20;;;;;;5042865;28;20041;-78
2022/07/04 12:23:03;;;;;;;2.75;1.02;;;23.40;95.80;;;;;;5048080;28;20078;-80
2022/07/04 12:25:36;;;;;;;3.22;1.00;;;23.40;95.80;;;;;;5034813;28;20044;-79
2022/07/04 12:28:08;;;;;;;3.05;0.90;;;23.50;96.30;;;;;;5031112;28;20064;-79
2022/07/04 12:30:36;;;;;;;3.63;1.00;;;23.80;96.20;;;;;;5031411;28;20404;-80
2022/07/04 12:33:07;;;;;;;2.47;1.10;;;23.70;95.60;;;;;;5031471;28;20077;-81
2022/07/04 12:35:43;;;;;;;2.45;0.75;;;23.80;95.90;;;;;;5047073;28;20395;-81
2022/07/04 12:38:30;;;;;;;2.67;0.90;;;24.20;95.60;;;;;;5048459;28;20037;-79
2022/07/04 12:41:07;;;;;;;3.40;1.10;;;24.40;95.30;;;;;;5057647;28;20057;-79
2022/07/04 12:43:39;;;;;;;3.15;1.00;;;24.80;94.50;;;;;;5049899;28;20044;-79
2022/07/04 12:46:06;;;;;;;2.25;0.82;;;24.70;93.30;;;;;;5048569;28;20045;-80
2022/07/04 12:48:32;;;;;;;3.83;1.10;;;24.60;94.00;;;;;;5045212;28;20067;-80
2022/07/04 12:51:22;;;;;;;5.07;0.95;;;24.30;94.20;;;;;;5044074;28;20043;-81
2022/07/04 12:53:50;;;;;;;2.58;0.88;;;24.30;94.20;;;;;;5042539;28;20510;-80
2022/07/04 12:56:37;;;;;;;3.67;1.00;;;24.20;94.30;;;;;;5046495;28;20499;-80
2022/07/04 12:59:06;;;;;;;2.53;1.00;;;24.20;93.80;;;;;;5041517;28;20080;-80
2022/07/04 13:01:32;;;;;;;3.03;0.90;;;24.20;94.10;;;;;;5026509;28;20525;-80
2022/07/04 13:03:59;;;;;;;3.88;0.98;;;24.60;94.40;;;;;;5043111;28;20033;-79
2022/07/04 13:06:26;;;;;;;2.00;0.70;;;24.70;94.10;;;;;;5049244;28;20499;-81